Time;durP1;ratioP1;P1;durP2;ratioP2;P2;SDS_P1;SDS_P2;PMS_P1;PMS_P2;Temp;Humidity;BMP_temperature;BMP_pressure;BME280_temperature;BME280_humidity;BME280_pressure;Samples;Min_cycle;Max_cycle;Signal;HPM_P1;HPM_P2
2023/05/21 00:00:15;;;;;;;7.93;3.83;;;;;;;13.42;100.00;101654.41;5315278;27;20628;-68
2023/05/21 00:02:47;;;;;;;6.55;4.10;;;;;;;13.45;100.00;101655.03;5309981;27;20019;-68
2023/05/21 00:05:20;;;;;;;7.13;4.57;;;;;;;13.42;100.00;101657.91;5326590;27;20479;-67
2023/05/21 00:07:53;;;;;;;5.95;4.35;;;;;;;13.41;100.00;101650.88;5309888;28;20038;-68
2023/05/21 00:10:25;;;;;;;6.85;5.20;;;;;;;13.37;100.00;101652.06;5287612;28;20035;-68
2023/05/21 00:12:57;;;;;;;8.25;5.07;;;;;;;13.37;100.00;101652.06;5311991;28;20027;-68
2023/05/21 00:15:28;;;;;;;7.22;4.80;;;;;;;13.31;100.00;101653.38;5320404;27;20031;-68
2023/05/21 00:18:00;;;;;;;6.40;4.20;;;;;;;13.25;100.00;101650.25;5313272;27;20020;-68
2023/05/21 00:20:31;;;;;;;9.10;5.18;;;;;;;13.22;100.00;101646.00;5314195;28;20019;-68
2023/05/21 00:23:03;;;;;;;7.45;4.68;;;;;;;13.22;100.00;101654.03;5317850;28;20026;-68
2023/05/21 00:25:34;;;;;;;7.57;4.55;;;;;;;13.16;100.00;101648.31;5312191;28;20046;-68
2023/05/21 00:28:06;;;;;;;8.77;5.00;;;;;;;13.21;100.00;101641.63;5304573;28;20023;-68
2023/05/21 00:30:38;;;;;;;10.82;8.48;;;;;;;13.12;100.00;101636.94;5309255;28;20038;-68
2023/05/21 00:33:12;;;;;;;15.18;12.95;;;;;;;13.07;100.00;101639.97;5321854;28;20115;-68
2023/05/21 00:35:45;;;;;;;17.08;13.85;;;;;;;13.06;100.00;101643.63;5292873;28;20172;-68
2023/05/21 00:38:16;;;;;;;17.33;13.23;;;;;;;12.99;100.00;101636.16;5315504;28;20026;-68
2023/05/21 00:40:48;;;;;;;16.92;11.13;;;;;;;13.05;100.00;101641.03;5315785;28;20412;-68
2023/05/21 00:43:24;;;;;;;12.38;8.88;;;;;;;13.04;100.00;101636.66;5331188;28;20026;-68
2023/05/21 00:45:58;;;;;;;11.70;7.65;;;;;;;12.97;100.00;101636.25;5336454;27;20046;-68
2023/05/21 00:48:31;;;;;;;8.30;6.05;;;;;;;12.94;100.00;101632.00;5316629;28;20354;-68
2023/05/21 00:51:04;;;;;;;8.65;6.35;;;;;;;12.93;100.00;101632.09;5316739;28;20015;-68
2023/05/21 00:53:36;;;;;;;7.70;5.47;;;;;;;12.94;100.00;101633.78;5312581;28;20474;-68
2023/05/21 00:56:07;;;;;;;7.65;5.45;;;;;;;12.97;100.00;101636.25;5318088;28;20114;-69
2023/05/21 00:58:40;;;;;;;5.78;4.70;;;;;;;12.90;100.00;101626.97;5309809;28;20477;-68
2023/05/21 01:01:12;;;;;;;7.43;5.05;;;;;;;12.93;100.00;101629.44;5309274;28;20466;-68
2023/05/21 01:03:43;;;;;;;6.85;4.80;;;;;;;12.85;100.00;101632.66;5322769;27;20027;-68
2023/05/21 01:06:15;;;;;;;6.50;4.47;;;;;;;12.84;100.00;101630.09;5315980;27;20138;-68
2023/05/21 01:08:46;;;;;;;7.30;4.50;;;;;;;12.81;100.00;101624.94;5314575;28;20496;-68
2023/05/21 01:11:20;;;;;;;7.47;4.70;;;;;;;12.79;100.00;101632.25;5292768;28;20404;-68
2023/05/21 01:13:51;;;;;;;7.00;4.40;;;;;;;12.78;100.00;101633.22;5304827;28;20034;-68
2023/05/21 01:16:23;;;;;;;5.20;4.28;;;;;;;12.72;100.00;101623.81;5318178;27;20023;-68
2023/05/21 01:18:56;;;;;;;6.95;4.63;;;;;;;12.71;100.00;101633.69;5323963;27;20027;-70
2023/05/21 01:21:29;;;;;;;7.05;5.20;;;;;;;12.77;100.00;101631.50;5322162;27;20019;-68
2023/05/21 01:24:04;;;;;;;6.75;4.80;;;;;;;12.72;100.00;101634.53;5310900;27;20023;-68
2023/05/21 01:26:37;;;;;;;7.07;5.15;;;;;;;12.65;100.00;101628.75;5319319;28;20031;-68
2023/05/21 01:29:11;;;;;;;8.33;5.60;;;;;;;12.64;100.00;101624.38;5309602;27;20036;-68
2023/05/21 01:31:58;;;;;;;6.50;4.68;;;;;;;12.60;100.00;101622.91;5316497;27;20069;-69
2023/05/21 01:34:39;;;;;;;6.85;5.03;;;;;;;12.63;100.00;101622.66;5305587;28;20031;-68
2023/05/21 01:37:20;;;;;;;10.05;4.63;;;;;;;12.58;100.00;101621.28;5314427;28;20466;-68
2023/05/21 01:39:55;;;;;;;8.07;4.75;;;;;;;12.58;100.00;101626.63;5309804;28;20023;-68
2023/05/21 01:42:29;;;;;;;6.43;4.57;;;;;;;12.56;100.00;101618.75;5312402;28;20027;-68
2023/05/21 01:45:05;;;;;;;6.70;5.00;;;;;;;12.53;100.00;101621.63;5310522;27;20023;-68
2023/05/21 01:47:36;;;;;;;5.60;4.75;;;;;;;12.56;100.00;101624.09;5312276;28;20104;-69
2023/05/21 01:50:08;;;;;;;7.88;4.75;;;;;;;12.51;100.00;101619.06;5317061;28;20043;-68
2023/05/21 01:52:48;;;;;;;7.82;5.05;;;;;;;12.52;100.00;101619.91;5320502;27;20419;-68
2023/05/21 01:55:23;;;;;;;7.78;5.25;;;;;;;12.48;100.00;101611.25;5316075;27;20034;-68
2023/05/21 01:57:54;;;;;;;7.68;5.63;;;;;;;12.49;100.00;101612.97;5315410;27;20479;-68
2023/05/21 02:00:28;;;;;;;7.57;4.75;;;;;;;12.53;100.00;101610.91;5312248;28;20023;-68
2023/05/21 02:02:59;;;;;;;8.57;4.90;;;;;;;12.53;100.00;101613.59;5319933;27;20028;-68
2023/05/21 02:05:30;;;;;;;7.60;4.82;;;;;;;12.52;100.00;101618.09;5321716;27;20023;-67
2023/05/21 02:08:02;;;;;;;6.70;5.07;;;;;;;12.58;100.00;101611.44;5288666;28;20032;-68
2023/05/21 02:10:36;;;;;;;6.90;4.93;;;;;;;12.57;100.00;101600.84;5275087;28;20032;-68
2023/05/21 02:13:08;;;;;;;7.10;4.90;;;;;;;12.61;100.00;101605.84;5268275;28;20083;-68
2023/05/21 02:15:41;;;;;;;6.70;5.07;;;;;;;12.57;100.00;101609.72;5268843;28;20029;-68
2023/05/21 02:18:17;;;;;;;6.57;4.72;;;;;;;12.64;100.00;101608.31;5290360;28;20026;-68
2023/05/21 02:20:48;;;;;;;7.32;4.60;;;;;;;12.64;100.00;101610.16;5271820;28;20032;-69
2023/05/21 02:23:20;;;;;;;6.90;4.65;;;;;;;12.64;100.00;101610.16;5271669;28;20037;-68
2023/05/21 02:25:51;;;;;;;5.90;4.53;;;;;;;12.62;100.00;101601.34;5267979;28;20603;-68
2023/05/21 02:28:22;;;;;;;8.23;4.60;;;;;;;12.62;100.00;101607.56;5269455;28;20175;-68
2023/05/21 02:30:54;;;;;;;7.30;4.90;;;;;;;12.64;100.00;101605.63;5273053;28;20021;-68
2023/05/21 02:33:26;;;;;;;8.68;5.28;;;;;;;12.64;100.00;101604.78;5270710;28;20056;-68
2023/05/21 02:35:58;;;;;;;7.72;4.80;;;;;;;12.67;100.00;101608.06;5268924;28;20059;-68
2023/05/21 02:38:31;;;;;;;8.50;5.63;;;;;;;12.71;100.00;101606.91;5266889;28;20021;-68
2023/05/21 02:41:02;;;;;;;8.20;5.07;;;;;;;12.70;100.00;101607.88;5264527;28;20028;-68
2023/05/21 02:43:34;;;;;;;6.03;4.90;;;;;;;12.72;100.00;101602.41;5275806;28;20279;-68
2023/05/21 02:46:06;;;;;;;6.75;4.50;;;;;;;12.77;100.00;101599.38;5266346;28;20028;-68
2023/05/21 02:48:37;;;;;;;6.63;5.10;;;;;;;12.80;100.00;101604.50;5266893;28;20050;-68
2023/05/21 02:51:09;;;;;;;6.43;4.72;;;;;;;12.75;100.00;101595.00;5280089;28;20021;-68
2023/05/21 02:53:40;;;;;;;7.78;5.38;;;;;;;12.73;100.00;101591.59;5267136;28;20054;-68
2023/05/21 02:56:11;;;;;;;7.32;5.00;;;;;;;12.75;100.00;101584.28;5269148;28;20383;-68
2023/05/21 02:58:43;;;;;;;6.60;4.88;;;;;;;12.78;100.00;101591.22;5257762;28;20769;-68
2023/05/21 03:01:14;;;;;;;7.00;5.40;;;;;;;12.79;100.00;101592.06;5296260;28;20039;-68
2023/05/21 03:03:45;;;;;;;7.20;5.00;;;;;;;12.80;100.00;101588.44;5267423;28;20422;-68
2023/05/21 03:06:18;;;;;;;7.90;4.78;;;;;;;12.82;100.00;101591.88;5295537;28;20055;-68
2023/05/21 03:08:50;;;;;;;6.53;5.10;;;;;;;12.78;100.00;101585.03;5331056;27;20019;-68
2023/05/21 03:11:21;;;;;;;8.27;5.10;;;;;;;12.78;100.00;101585.03;5312154;28;20031;-68
2023/05/21 03:13:52;;;;;;;7.65;5.40;;;;;;;12.81;100.00;101577.63;5311269;28;20027;-68
2023/05/21 03:16:24;;;;;;;6.97;5.00;;;;;;;12.79;100.00;101586.72;5306281;27;20093;-68
2023/05/21 03:18:55;;;;;;;7.50;5.25;;;;;;;12.77;100.00;101575.28;5311680;28;20049;-68
2023/05/21 03:21:28;;;;;;;7.28;5.07;;;;;;;12.78;100.00;101571.63;5300962;28;20023;-68
2023/05/21 03:24:00;;;;;;;8.13;5.43;;;;;;;12.75;100.00;101573.59;5309925;28;20023;-68
2023/05/21 03:26:32;;;;;;;6.13;4.97;;;;;;;12.78;100.00;101569.81;5308541;27;20019;-68
2023/05/21 03:29:04;;;;;;;6.88;5.60;;;;;;;12.74;100.00;101569.19;5312233;28;20023;-68
2023/05/21 03:31:35;;;;;;;6.32;5.32;;;;;;;12.74;100.00;101571.84;5309875;27;20024;-68
2023/05/21 03:34:07;;;;;;;7.70;5.22;;;;;;;12.74;100.00;101577.22;5305369;28;20259;-68
2023/05/21 03:36:39;;;;;;;6.95;5.57;;;;;;;12.74;100.00;101574.53;5306555;27;20082;-68
2023/05/21 03:39:11;;;;;;;6.85;5.22;;;;;;;12.72;100.00;101571.13;5305916;28;20027;-68
2023/05/21 03:41:42;;;;;;;7.78;5.20;;;;;;;12.73;100.00;101583.56;5312482;27;20035;-68
2023/05/21 03:44:14;;;;;;;7.20;5.53;;;;;;;12.81;100.00;101576.75;5313928;27;20042;-68
2023/05/21 03:46:45;;;;;;;9.20;5.80;;;;;;;12.79;100.00;101586.72;5305978;27;20031;-68
2023/05/21 03:49:16;;;;;;;7.13;5.43;;;;;;;12.77;100.00;101580.63;5313392;28;20031;-68
2023/05/21 03:51:48;;;;;;;8.13;5.10;;;;;;;12.76;100.00;101582.47;5308092;27;20035;-68
2023/05/21 03:54:19;;;;;;;7.25;5.50;;;;;;;12.77;100.00;101585.97;5285504;28;20035;-68
2023/05/21 03:56:50;;;;;;;8.05;5.25;;;;;;;12.76;100.00;101577.09;5308257;27;20050;-69
2023/05/21 03:59:22;;;;;;;9.52;6.15;;;;;;;12.75;100.00;101572.69;5303201;27;20015;-68
2023/05/21 04:01:53;;;;;;;8.63;5.55;;;;;;;12.77;100.00;101565.44;5311439;27;20047;-68
2023/05/21 04:04:25;;;;;;;8.15;5.75;;;;;;;12.77;100.00;101575.28;5309933;28;20031;-68
2023/05/21 04:06:56;;;;;;;9.38;6.18;;;;;;;12.78;100.00;101577.00;5336042;27;20051;-68
2023/05/21 04:09:27;;;;;;;7.65;5.88;;;;;;;12.89;100.00;101577.06;5314770;28;20028;-69
2023/05/21 04:12:00;;;;;;;6.57;5.22;;;;;;;12.78;100.00;101582.34;5312351;28;20096;-68
2023/05/21 04:14:32;;;;;;;7.28;5.25;;;;;;;12.78;100.00;101579.66;5314224;28;20020;-68
2023/05/21 04:17:04;;;;;;;8.25;5.97;;;;;;;12.74;100.00;101582.56;5319618;27;20038;-69
2023/05/21 04:19:35;;;;;;;7.38;5.63;;;;;;;12.72;100.00;101584.50;5309065;27;20035;-68
2023/05/21 04:22:08;;;;;;;7.53;5.93;;;;;;;12.70;100.00;101578.41;5302020;28;20033;-68
2023/05/21 04:24:40;;;;;;;8.70;5.83;;;;;;;12.69;100.00;101576.69;5311800;27;20035;-68
2023/05/21 04:27:12;;;;;;;7.00;5.93;;;;;;;12.68;100.00;101583.03;5308723;28;20300;-68
2023/05/21 04:29:44;;;;;;;7.05;5.53;;;;;;;12.67;100.00;101583.97;5310152;28;20039;-68
2023/05/21 04:32:16;;;;;;;6.97;5.88;;;;;;;12.69;100.00;101586.56;5307054;28;20019;-68
2023/05/21 04:34:48;;;;;;;8.13;6.18;;;;;;;12.70;100.00;101583.75;5310030;28;20069;-69
2023/05/21 04:37:23;;;;;;;7.78;6.07;;;;;;;12.73;100.00;101586.22;5313896;28;20508;-68
2023/05/21 04:39:54;;;;;;;10.18;6.60;;;;;;;12.75;100.00;101588.78;5309264;27;20466;-68
2023/05/21 04:42:26;;;;;;;7.43;6.35;;;;;;;12.78;100.00;101587.72;5311897;27;20031;-68
2023/05/21 04:44:58;;;;;;;9.30;6.20;;;;;;;12.81;100.00;101588.34;5318804;28;20039;-68
2023/05/21 04:47:34;;;;;;;7.30;5.93;;;;;;;12.80;100.00;101593.81;5315347;28;20093;-68
2023/05/21 04:50:09;;;;;;;10.45;6.65;;;;;;;12.84;100.00;101592.59;5314234;27;20038;-68
2023/05/21 04:52:41;;;;;;;9.30;5.88;;;;;;;12.91;100.00;101596.53;5308401;28;20055;-68
2023/05/21 04:55:12;;;;;;;7.50;5.93;;;;;;;12.85;100.00;101591.66;5315655;27;20066;-68
2023/05/21 04:57:43;;;;;;;7.78;6.40;;;;;;;12.87;100.00;101587.88;5321707;27;20039;-68
2023/05/21 05:00:16;;;;;;;8.65;6.72;;;;;;;12.88;100.00;101591.41;5308527;28;20067;-68
2023/05/21 05:02:47;;;;;;;11.88;7.38;;;;;;;12.91;100.00;101600.06;5312553;28;20032;-68
2023/05/21 05:05:18;;;;;;;9.60;7.45;;;;;;;12.90;100.00;101598.34;5310056;28;20518;-67
2023/05/21 05:07:50;;;;;;;8.48;6.65;;;;;;;12.91;100.00;101596.53;5278727;28;20572;-69
2023/05/21 05:10:21;;;;;;;8.50;6.80;;;;;;;12.93;100.00;101591.94;5273322;28;20036;-68
2023/05/21 05:12:53;;;;;;;8.90;7.53;;;;;;;12.96;100.00;101594.34;5275932;28;20042;-68
2023/05/21 05:15:25;;;;;;;8.23;7.03;;;;;;;12.98;100.00;101587.06;5272339;28;20028;-68
2023/05/21 05:17:56;;;;;;;8.57;6.50;;;;;;;13.01;100.00;101580.63;5270393;28;20029;-68
2023/05/21 05:20:27;;;;;;;8.20;6.90;;;;;;;13.02;100.00;101580.53;5264523;28;20032;-68
2023/05/21 05:22:59;;;;;;;8.27;6.65;;;;;;;13.06;100.00;101581.13;5265743;28;20036;-68
2023/05/21 05:25:30;;;;;;;10.93;7.10;;;;;;;13.08;100.00;101588.09;5267224;28;20047;-68
2023/05/21 05:28:01;;;;;;;8.45;6.82;;;;;;;13.12;100.00;101578.00;5264186;28;20024;-68
2023/05/21 05:30:34;;;;;;;9.38;6.75;;;;;;;13.17;100.00;101583.00;5273228;28;20062;-68
2023/05/21 05:33:05;;;;;;;10.15;7.35;;;;;;;13.19;100.00;101581.91;5270360;28;20032;-68
2023/05/21 05:35:37;;;;;;;9.25;6.47;;;;;;;13.21;100.00;101587.16;5274869;28;20477;-68
2023/05/21 05:38:09;;;;;;;8.48;6.60;;;;;;;13.23;100.00;101588.78;5270052;28;20481;-68
2023/05/21 05:40:40;;;;;;;9.32;6.72;;;;;;;13.27;100.00;101582.19;5271862;28;20028;-68
2023/05/21 05:43:11;;;;;;;7.93;6.70;;;;;;;13.31;100.00;101585.53;5279872;28;20062;-68
2023/05/21 05:45:43;;;;;;;10.05;7.00;;;;;;;13.34;100.00;101582.59;5271746;28;20029;-68
2023/05/21 05:48:15;;;;;;;7.97;6.70;;;;;;;13.39;100.00;101585.78;5272187;28;20028;-68
2023/05/21 05:50:47;;;;;;;10.10;7.07;;;;;;;13.43;100.00;101592.63;5266048;28;20041;-68
2023/05/21 05:53:18;;;;;;;9.85;6.78;;;;;;;13.47;100.00;101583.38;5297736;27;20098;-68
2023/05/21 05:55:50;;;;;;;9.98;7.00;;;;;;;13.51;100.00;101587.53;5279642;28;20124;-68
2023/05/21 05:58:21;;;;;;;11.95;7.50;;;;;;;13.57;100.00;101585.34;5274058;28;20024;-68
2023/05/21 06:00:52;;;;;;;10.60;6.78;;;;;;;13.60;100.00;101580.59;5268719;28;20108;-68
2023/05/21 06:03:24;;;;;;;11.38;6.90;;;;;;;13.66;100.00;101584.66;5273015;28;20032;-68
2023/05/21 06:05:55;;;;;;;9.48;6.90;;;;;;;13.72;100.00;101590.38;5278691;28;20039;-68
2023/05/21 06:08:27;;;;;;;7.85;6.75;;;;;;;13.81;100.00;101596.00;5315364;28;20023;-68
2023/05/21 06:10:58;;;;;;;8.35;7.35;;;;;;;13.85;100.00;101592.09;5314310;28;20390;-68
2023/05/21 06:13:30;;;;;;;9.85;7.53;;;;;;;13.89;100.00;101589.06;5315129;28;20482;-68
2023/05/21 06:16:02;;;;;;;9.27;7.05;;;;;;;13.88;100.00;101584.69;5312371;28;20027;-68
2023/05/21 06:18:34;;;;;;;10.10;7.55;;;;;;;13.95;100.00;101590.41;5306539;28;21174;-68
2023/05/21 06:21:05;;;;;;;11.60;7.22;;;;;;;14.07;100.00;101597.47;5305616;28;20032;-68
2023/05/21 06:23:37;;;;;;;10.05;7.72;;;;;;;14.11;100.00;101593.59;5307155;28;20028;-68
2023/05/21 06:26:08;;;;;;;10.88;7.22;;;;;;;14.23;100.00;101588.19;5311850;27;21030;-68
2023/05/21 06:28:39;;;;;;;9.27;7.30;;;;;;;14.36;100.00;101593.44;5315433;28;20470;-68
2023/05/21 06:31:11;;;;;;;9.35;7.28;;;;;;;14.38;100.00;101586.97;5308958;27;20359;-68
2023/05/21 06:33:42;;;;;;;11.10;7.63;;;;;;;14.45;100.00;101590.00;5294369;28;20118;-68
2023/05/21 06:36:15;;;;;;;9.15;7.22;;;;;;;14.52;100.00;101585.84;5309437;27;20409;-69
2023/05/21 06:38:46;;;;;;;9.40;7.35;;;;;;;14.56;100.00;101589.16;5310850;27;20386;-68
2023/05/21 06:41:18;;;;;;;9.20;7.43;;;;;;;14.66;100.00;101580.22;5327070;27;20028;-69
2023/05/21 06:43:49;;;;;;;10.70;7.00;;;;;;;14.74;100.00;101581.44;5315443;28;20019;-69
2023/05/21 06:46:21;;;;;;;9.40;7.68;;;;;;;14.80;100.00;101583.63;5312836;28;20019;-69
2023/05/21 06:48:52;;;;;;;11.68;8.07;;;;;;;14.91;100.00;101588.94;5307588;27;20424;-69
2023/05/21 06:51:23;;;;;;;10.20;7.55;;;;;;;15.00;100.00;101582.81;5304239;27;20055;-66
2023/05/21 06:53:55;;;;;;;11.50;7.78;;;;;;;15.14;100.00;101584.34;5307113;27;20024;-68
2023/05/21 06:56:26;;;;;;;9.48;7.68;;;;;;;15.12;100.00;101578.25;5303580;27;20126;-68
2023/05/21 06:58:58;;;;;;;8.90;7.35;;;;;;;15.18;100.00;101580.41;5307316;28;20023;-68
2023/05/21 07:01:29;;;;;;;13.48;7.50;;;;;;;15.26;100.00;101577.06;5312626;27;20024;-68
2023/05/21 07:04:01;;;;;;;9.52;7.57;;;;;;;15.33;100.00;101572.03;5314348;28;20046;-68
2023/05/21 07:06:33;;;;;;;9.93;7.70;;;;;;;15.47;100.00;101571.69;5287042;28;20045;-68
2023/05/21 07:09:05;;;;;;;11.05;8.05;;;;;;;15.54;100.00;101558.59;5274409;28;20044;-68
2023/05/21 07:11:36;;;;;;;10.07;8.10;;;;;;;15.60;100.00;101566.13;5267871;28;20024;-68
2023/05/21 07:14:08;;;;;;;9.18;7.65;;;;;;;15.71;100.00;101563.38;5262000;28;20116;-68
2023/05/21 07:16:39;;;;;;;11.27;8.32;;;;;;;15.85;100.00;101559.50;5274833;28;20491;-68
2023/05/21 07:19:11;;;;;;;10.98;8.05;;;;;;;15.88;100.00;101552.00;5270138;28;20073;-68
2023/05/21 07:21:42;;;;;;;9.02;7.88;;;;;;;16.02;100.00;101555.31;5268279;28;20016;-68
2023/05/21 07:24:13;;;;;;;10.30;8.15;;;;;;;16.08;100.00;101557.47;5266222;28;20525;-68
2023/05/21 07:26:45;;;;;;;11.57;8.10;;;;;;;16.20;100.00;101560.91;5273632;28;20028;-68
2023/05/21 07:29:16;;;;;;;9.63;7.90;;;;;;;16.26;100.00;101563.03;5269333;28;20048;-68
2023/05/21 07:31:47;;;;;;;11.10;7.93;;;;;;;16.23;100.00;101564.19;5267438;28;20060;-68
2023/05/21 07:34:19;;;;;;;11.52;8.32;;;;;;;16.29;100.00;101556.56;5256863;28;20500;-68
2023/05/21 07:36:50;;;;;;;9.82;8.02;;;;;;;16.42;100.00;101560.69;5270528;28;20394;-68
2023/05/21 07:39:22;;;;;;;9.88;7.95;;;;;;;16.44;100.00;101557.88;5265663;28;20020;-68
2023/05/21 07:41:53;;;;;;;9.68;7.95;;;;;;;16.46;100.00;101554.03;5265971;28;20049;-68
2023/05/21 07:44:24;;;;;;;11.55;7.85;;;;;;;16.53;100.00;101557.03;5267329;28;20048;-68
2023/05/21 07:46:56;;;;;;;9.55;8.27;;;;;;;16.61;100.00;101559.03;5263818;28;20065;-68
2023/05/21 07:49:27;;;;;;;9.18;8.13;;;;;;;16.67;100.00;101556.63;5270949;28;20052;-68
2023/05/21 07:51:59;;;;;;;11.05;8.48;;;;;;;16.75;100.00;101557.78;5262808;28;20032;-68
2023/05/21 07:54:30;;;;;;;10.43;8.55;;;;;;;16.88;100.00;101547.59;5265209;28;20043;-68
2023/05/21 07:57:02;;;;;;;10.50;8.65;;;;;;;16.96;100.00;101555.81;5263873;28;20479;-68
2023/05/21 07:59:33;;;;;;;10.10;8.35;;;;;;;17.03;100.00;101559.66;5271857;28;20398;-68
2023/05/21 08:02:05;;;;;;;12.75;8.73;;;;;;;17.04;100.00;101552.41;5272099;28;20119;-68
2023/05/21 08:04:37;;;;;;;10.07;8.90;;;;;;;17.10;100.00;101562.63;5269247;28;20144;-68
2023/05/21 08:07:09;;;;;;;10.55;8.40;;;;;;;17.10;100.00;101559.94;5276932;28;20049;-68
2023/05/21 08:09:40;;;;;;;10.38;8.65;;;;;;;17.23;100.00;101555.09;5262568;28;20029;-68
2023/05/21 08:12:14;;;;;;;12.60;8.07;;;;;;;17.31;100.00;101554.38;5263862;28;20632;-68
2023/05/21 08:14:46;;;;;;;11.18;8.20;;;;;;;17.50;100.00;101547.25;5273192;28;20108;-68
2023/05/21 08:17:17;;;;;;;10.73;7.78;;;;;;;17.53;100.00;101549.69;5259729;28;20396;-68
2023/05/21 08:19:48;;;;;;;10.18;8.27;;;;;;;17.66;100.00;101552.03;5274373;28;20144;-68
2023/05/21 08:22:20;;;;;;;10.10;8.93;;;;;;;17.67;100.00;101553.75;5269377;28;20036;-68
2023/05/21 08:24:51;;;;;;;9.75;8.52;;;;;;;17.65;100.00;101551.19;5269803;28;20510;-68
2023/05/21 08:27:22;;;;;;;13.00;9.05;;;;;;;17.82;100.00;101541.47;5272611;28;20526;-68
2023/05/21 08:29:54;;;;;;;12.48;8.40;;;;;;;17.86;100.00;101544.78;5266859;28;20032;-68
2023/05/21 08:32:25;;;;;;;13.70;8.80;;;;;;;17.91;100.00;101550.56;5264742;28;20437;-68
2023/05/21 08:34:57;;;;;;;11.95;8.73;;;;;;;18.05;100.00;101538.44;5276943;28;20028;-68
2023/05/21 08:37:28;;;;;;;11.80;8.52;;;;;;;18.02;100.00;101545.84;5262368;28;20116;-68
2023/05/21 08:40:00;;;;;;;12.13;9.10;;;;;;;18.05;100.00;101538.44;5271093;28;20083;-68
2023/05/21 08:42:31;;;;;;;11.82;9.27;;;;;;;18.09;100.00;101527.19;5271958;28;20024;-68
2023/05/21 08:45:05;;;;;;;11.27;8.43;;;;;;;18.19;100.00;101535.22;5264408;28;21421;-68
2023/05/21 08:47:38;;;;;;;;;;;;;;;18.35;100.00;101532.72;5263030;28;20078;-68
2023/05/21 08:50:12;;;;;;;10.45;8.77;;;;;;;18.39;100.00;101536.81;5271115;28;19920;-68
2023/05/21 08:52:43;;;;;;;12.20;9.23;;;;;;;18.48;100.00;101531.50;5266231;28;20020;-68
2023/05/21 08:55:15;;;;;;;10.70;8.95;;;;;;;18.53;100.00;101538.16;5272752;28;20031;-68
2023/05/21 08:57:47;;;;;;;11.10;9.00;;;;;;;18.56;100.00;101529.75;5260250;28;20026;-68
2023/05/21 09:00:19;;;;;;;10.68;9.25;;;;;;;18.61;100.00;101527.41;5264978;28;20033;-68
2023/05/21 09:02:53;;;;;;;13.38;9.30;;;;;;;18.58;100.00;101525.03;5280489;28;20043;-68
2023/05/21 09:05:25;;;;;;;11.10;9.15;;;;;;;18.63;100.00;101529.97;5268408;28;20420;-68
2023/05/21 09:08:14;;;;;;;11.55;9.32;;;;;;;18.68;100.00;101524.97;5312288;28;20525;-68
2023/05/21 09:10:50;;;;;;;13.30;9.68;;;;;;;18.65;100.00;101527.13;5305898;28;20115;-68
2023/05/21 09:13:23;;;;;;;12.30;8.85;;;;;;;18.81;100.00;101532.69;5309278;28;20572;-68
2023/05/21 09:15:55;;;;;;;10.88;8.80;;;;;;;18.88;100.00;101522.97;5312904;28;20080;-68
2023/05/21 09:18:26;;;;;;;11.65;9.57;;;;;;;18.87;100.00;101531.22;5316079;28;20023;-68
2023/05/21 09:21:28;;;;;;;11.50;9.25;;;;;;;18.90;100.00;101529.06;5308744;28;20036;-68
2023/05/21 09:24:00;;;;;;;12.48;9.98;;;;;;;18.95;100.00;101532.16;5310583;28;20232;-68
2023/05/21 09:26:32;;;;;;;9.90;8.45;;;;;;;19.05;100.00;101533.94;5303790;27;20507;-68
2023/05/21 09:29:04;;;;;;;14.52;8.32;;;;;;;19.06;100.00;101530.22;5307976;28;20369;-68
2023/05/21 09:31:35;;;;;;;12.07;9.10;;;;;;;19.19;100.00;101527.97;5321333;27;20036;-68
2023/05/21 09:34:06;;;;;;;12.13;8.98;;;;;;;19.30;100.00;101526.88;5314407;28;20061;-68
2023/05/21 09:36:38;;;;;;;11.32;9.38;;;;;;;19.13;100.00;101534.00;5307914;27;20038;-68
2023/05/21 09:39:15;;;;;;;12.70;9.63;;;;;;;19.09;100.00;101527.22;5310111;27;20023;-68
2023/05/21 09:41:47;;;;;;;10.75;8.57;;;;;;;19.26;100.00;101529.03;5316553;27;20103;-68
2023/05/21 09:44:18;;;;;;;10.00;9.00;;;;;;;19.30;100.00;101522.31;5307657;28;20032;-68
2023/05/21 09:46:51;;;;;;;10.52;9.43;;;;;;;19.33;100.00;101524.69;5308114;27;20027;-68
2023/05/21 09:49:26;;;;;;;13.77;9.63;;;;;;;19.24;100.00;101516.69;5310858;27;20448;-68
2023/05/21 09:51:58;;;;;;;11.10;8.77;;;;;;;19.32;100.00;101514.88;5306315;28;20016;-68
2023/05/21 09:54:33;;;;;;;12.40;9.20;;;;;;;19.25;100.00;101521.91;5312279;27;20023;-68
2023/05/21 09:57:05;;;;;;;13.90;9.80;;;;;;;19.32;100.00;101514.88;5313309;27;20042;-68
2023/05/21 09:59:40;;;;;;;11.27;8.95;;;;;;;19.34;100.00;101525.53;5317031;27;20397;-68
2023/05/21 10:02:18;;;;;;;10.35;9.25;;;;;;;19.49;100.00;101512.28;5316629;28;21116;-68
2023/05/21 10:04:50;;;;;;;12.93;9.77;;;;;;;19.49;100.00;101506.88;5311090;28;20031;-68
2023/05/21 10:07:24;;;;;;;12.43;9.75;;;;;;;19.67;100.00;101494.09;5311516;28;20044;-68
2023/05/21 10:09:56;;;;;;;;;;;;;;;19.78;100.00;101504.69;5316018;28;20516;-68
2023/05/21 10:12:29;;;;;;;11.07;9.15;;;;;;;19.68;100.00;101501.22;5311376;27;19919;-68
2023/05/21 10:15:03;;;;;;;13.32;9.10;;;;;;;19.77;100.00;101494.88;5315179;27;20027;-68
2023/05/21 10:17:35;;;;;;;11.60;9.77;;;;;;;19.83;100.00;101489.81;5309881;27;20054;-68
2023/05/21 10:20:09;;;;;;;12.10;9.27;;;;;;;19.96;100.00;101484.78;5312462;28;20027;-68
2023/05/21 10:22:41;;;;;;;14.27;10.10;;;;;;;19.99;100.00;101481.75;5313461;28;20449;-68
2023/05/21 10:25:12;;;;;;;11.70;9.60;;;;;;;20.09;100.00;101487.03;5313666;27;20031;-68
2023/05/21 10:27:44;;;;;;;15.50;11.23;;;;;;;20.12;100.00;101495.69;5314036;27;20110;-68
2023/05/21 10:30:17;;;;;;;12.57;10.73;;;;;;;20.09;100.00;101484.34;5307212;27;20113;-68
2023/05/21 10:32:48;;;;;;;12.82;10.10;;;;;;;20.21;100.00;101482.16;5315977;27;20028;-68
2023/05/21 10:35:20;;;;;;;11.00;9.50;;;;;;;20.32;100.00;101471.00;5307312;27;20535;-68
2023/05/21 10:37:53;;;;;;;12.50;10.23;;;;;;;20.35;100.00;101479.66;5308009;27;20482;-68
2023/05/21 10:40:24;;;;;;;12.68;10.45;;;;;;;20.39;100.00;101473.91;5313029;27;20027;-68
2023/05/21 10:43:43;;;;;;;13.82;10.68;;;;;;;20.54;100.00;101467.66;5314597;27;20027;-68
2023/05/21 10:46:36;;;;;;;13.05;10.77;;;;;;;20.56;100.00;101459.38;5286851;28;20040;-68
2023/05/21 10:49:21;;;;;;;12.23;10.43;;;;;;;20.51;100.00;101457.16;5304344;27;20035;-68
2023/05/21 10:52:18;;;;;;;15.05;11.35;;;;;;;20.50;100.00;101460.91;5305471;28;20027;-68
2023/05/21 10:55:00;;;;;;;13.80;11.35;;;;;;;20.59;100.00;101469.03;5294194;28;20031;-68
2023/05/21 10:57:49;;;;;;;15.75;11.23;;;;;;;20.65;100.00;101452.09;5313642;28;20032;-68
2023/05/21 11:00:23;;;;;;;14.80;10.70;;;;;;;20.72;100.00;101453.13;5312308;28;20039;-68
2023/05/21 11:02:55;;;;;;;17.15;10.75;;;;;;;20.79;100.00;101446.03;5308588;27;20450;-68
2023/05/21 11:05:54;;;;;;;13.82;11.30;;;;;;;20.84;100.00;101435.50;5305766;28;20100;-68
2023/05/21 11:08:39;;;;;;;13.75;12.18;;;;;;;20.87;100.00;101445.19;5272809;28;20036;-68
2023/05/21 11:11:10;;;;;;;;;;;;;;;21.03;100.00;101439.72;5270091;28;20078;-68
2023/05/21 11:13:49;;;;;;;15.43;10.82;;;;;;;21.12;100.00;101440.56;5273843;28;19913;-68
2023/05/21 11:16:24;;;;;;;13.68;11.10;;;;;;;21.11;100.00;101431.59;5266785;28;20035;-68
2023/05/21 11:18:56;;;;;;;14.25;10.90;;;;;;;21.20;100.00;101428.84;5268991;28;20029;-68
2023/05/21 11:21:32;;;;;;;14.02;10.80;;;;;;;21.24;100.00;101420.16;5267013;28;20023;-68
2023/05/21 11:24:05;;;;;;;14.40;10.90;;;;;;;21.43;100.00;101423.53;5267462;28;20054;-68
2023/05/21 11:26:51;;;;;;;14.13;11.02;;;;;;;21.56;100.00;101412.97;5268838;28;20051;-69
2023/05/21 11:29:39;;;;;;;16.58;12.15;;;;;;;21.59;100.00;101412.63;5265850;28;20075;-68
2023/05/21 11:32:12;;;;;;;13.13;11.15;;;;;;;21.58;100.00;101407.38;5271616;28;20094;-68
2023/05/21 11:34:45;;;;;;;15.50;11.90;;;;;;;21.68;100.00;101403.41;5297532;27;20043;-68
2023/05/21 11:39:50;;;;;;;13.52;11.88;;;;;;;21.92;100.00;101407.88;5266661;28;20463;-68
2023/05/21 11:42:30;;;;;;;16.02;12.82;;;;;;;21.90;100.00;101406.38;5276303;28;20032;-68